Time;durP1;ratioP1;P1;durP2;ratioP2;P2;SDS_P1;SDS_P2;PMS_P1;PMS_P2;Temp;Humidity;BMP_temperature;BMP_pressure;BME280_temperature;BME280_humidity;BME280_pressure;Samples;Min_cycle;Max_cycle;Signal;HPM_P1;HPM_P2
2022/04/09 00:00:21;;;;;;;3.00;1.60;;;;;;;4.71;79.30;98651.66;4917503;29;20036;-74
2022/04/09 00:02:47;;;;;;;2.95;1.60;;;;;;;4.63;80.01;98648.28;4917328;29;20039;-74
2022/04/09 00:05:13;;;;;;;4.72;1.70;;;;;;;4.63;80.15;98653.50;4910438;29;20039;-74
2022/04/09 00:07:39;;;;;;;3.90;1.65;;;;;;;4.68;79.95;98663.91;4917014;29;20044;-74
2022/04/09 00:10:06;;;;;;;3.28;1.85;;;;;;;4.70;80.08;98665.63;4917372;29;20099;-75
2022/04/09 00:12:32;;;;;;;3.45;1.48;;;;;;;4.71;80.15;98669.09;4917062;29;20036;-74
2022/04/09 00:14:57;;;;;;;3.40;1.50;;;;;;;4.62;80.33;98657.00;4913520;29;20123;-74
2022/04/09 00:17:23;;;;;;;4.28;1.25;;;;;;;4.67;80.19;98654.34;4917221;29;20040;-74
2022/04/09 00:19:48;;;;;;;2.88;1.50;;;;;;;4.70;80.29;98655.16;4917251;29;20063;-74
2022/04/09 00:22:14;;;;;;;3.78;1.83;;;;;;;4.71;80.30;98666.47;4915722;29;20071;-74
2022/04/09 00:24:40;;;;;;;3.50;1.95;;;;;;;4.72;80.37;98669.09;4916166;29;20040;-74
2022/04/09 00:27:05;;;;;;;4.05;2.03;;;;;;;4.75;80.59;98660.34;4916897;29;20123;-74
2022/04/09 00:29:31;;;;;;;2.85;1.58;;;;;;;4.75;80.43;98670.78;4915676;29;20083;-74
2022/04/09 00:31:56;;;;;;;5.13;1.73;;;;;;;4.79;80.15;98675.97;4916731;29;20044;-74
2022/04/09 00:34:22;;;;;;;3.55;1.50;;;;;;;4.76;79.47;98681.22;4916707;29;20040;-74
2022/04/09 00:36:47;;;;;;;3.22;1.70;;;;;;;4.66;80.30;98684.81;4916271;29;20083;-74
2022/04/09 00:39:12;;;;;;;3.42;1.75;;;;;;;4.64;80.63;98677.88;4916692;29;20035;-73
2022/04/09 00:41:41;;;;;;;4.82;1.67;;;;;;;4.68;80.45;98677.84;4916586;29;20063;-74
2022/04/09 00:44:17;;;;;;;5.70;1.80;;;;;;;4.72;80.34;98673.44;4922327;29;20040;-74
2022/04/09 00:46:43;;;;;;;4.68;1.70;;;;;;;4.76;80.04;98686.44;4916561;29;20063;-74
2022/04/09 00:49:10;;;;;;;4.35;1.80;;;;;;;4.71;80.22;98679.53;4923939;29;20415;-74
2022/04/09 00:51:39;;;;;;;3.63;1.85;;;;;;;4.71;80.62;98687.38;4916301;29;20051;-74
2022/04/09 00:54:05;;;;;;;5.38;1.38;;;;;;;4.66;80.72;98687.44;4916440;29;20040;-74
2022/04/09 00:56:32;;;;;;;3.85;1.60;;;;;;;4.68;81.01;98698.75;4915109;29;20032;-74
2022/04/09 00:59:01;;;;;;;2.90;1.60;;;;;;;4.68;80.81;98697.88;4916494;29;20042;-74
2022/04/09 01:01:28;;;;;;;4.90;1.50;;;;;;;4.70;81.15;98709.19;4916280;29;20043;-74
2022/04/09 01:03:55;;;;;;;4.93;2.00;;;;;;;4.73;80.67;98703.91;4912518;29;20048;-74
2022/04/09 01:06:21;;;;;;;4.88;2.00;;;;;;;4.75;80.46;98710.00;4912672;29;20036;-74
2022/04/09 01:08:47;;;;;;;3.70;1.80;;;;;;;4.74;81.06;98703.91;4916354;29;20074;-74
2022/04/09 01:11:13;;;;;;;2.72;1.60;;;;;;;4.80;80.68;98713.41;4914688;29;20106;-74
2022/04/09 01:13:39;;;;;;;4.18;1.83;;;;;;;4.85;80.36;98714.22;4914845;29;20063;-74
2022/04/09 01:16:05;;;;;;;2.67;1.58;;;;;;;4.89;79.79;98723.75;4916138;29;20384;-74
2022/04/09 01:18:31;;;;;;;4.25;2.10;;;;;;;4.85;79.75;98722.06;4916153;29;20043;-74
2022/04/09 01:21:01;;;;;;;4.22;1.90;;;;;;;4.82;79.83;98712.53;4914607;29;20400;-74
2022/04/09 01:23:28;;;;;;;3.95;1.92;;;;;;;4.84;80.36;98722.94;4911328;29;20111;-74
2022/04/09 01:25:55;;;;;;;3.38;1.95;;;;;;;4.76;80.89;98728.25;4914717;29;20398;-74
2022/04/09 01:28:21;;;;;;;5.40;2.10;;;;;;;4.73;80.82;98730.06;4915955;29;20079;-75
2022/04/09 01:30:46;;;;;;;5.25;2.10;;;;;;;4.70;81.14;98733.56;4914731;29;20583;-74
2022/04/09 01:33:16;;;;;;;5.38;2.35;;;;;;;4.75;81.26;98736.13;4917665;29;20039;-74
2022/04/09 01:35:42;;;;;;;3.85;2.28;;;;;;;4.71;81.42;98744.88;4914387;29;20036;-74
2022/04/09 01:38:08;;;;;;;4.95;2.55;;;;;;;4.70;81.37;98756.22;4915662;29;20096;-73
2022/04/09 01:40:34;;;;;;;3.95;2.40;;;;;;;4.73;81.37;98758.81;4914486;29;20035;-74
2022/04/09 01:42:59;;;;;;;4.88;2.63;;;;;;;4.68;82.06;98753.63;4914152;29;20553;-74
2022/04/09 01:45:25;;;;;;;4.20;2.50;;;;;;;4.71;81.93;98758.81;4914393;29;20050;-74
2022/04/09 01:47:51;;;;;;;6.85;2.90;;;;;;;4.71;81.96;98764.03;4929941;29;20032;-74
2022/04/09 01:50:17;;;;;;;5.97;2.88;;;;;;;4.69;82.15;98770.16;4914418;29;20032;-74
2022/04/09 01:52:42;;;;;;;5.28;2.97;;;;;;;4.65;82.37;98769.31;4911616;29;20099;-73
2022/04/09 01:55:08;;;;;;;5.53;3.05;;;;;;;4.59;82.73;98770.25;4911212;29;20048;-74
2022/04/09 01:57:36;;;;;;;4.90;3.08;;;;;;;4.57;82.47;98763.31;4914226;29;20063;-75
2022/04/09 02:00:07;;;;;;;6.47;3.15;;;;;;;4.63;82.05;98768.47;4921968;29;20040;-74
2022/04/09 02:02:39;;;;;;;5.28;2.92;;;;;;;4.58;82.04;98775.50;4915306;29;20040;-74
2022/04/09 02:05:05;;;;;;;9.88;4.70;;;;;;;4.53;82.42;98777.28;4913788;29;20028;-75
2022/04/09 02:07:31;;;;;;;8.15;3.58;;;;;;;4.52;82.09;98793.84;4913931;29;20044;-75
2022/04/09 02:09:57;;;;;;;6.53;3.25;;;;;;;4.47;82.23;98787.81;4927989;29;20123;-74
2022/04/09 02:12:23;;;;;;;7.25;3.60;;;;;;;4.47;82.09;98799.09;4913068;29;20514;-74
2022/04/09 02:14:49;;;;;;;7.15;3.40;;;;;;;4.47;81.99;98801.72;4915089;29;20037;-74
2022/04/09 02:17:15;;;;;;;5.80;3.35;;;;;;;4.48;81.81;98799.97;4929748;29;20197;-74
2022/04/09 02:19:40;;;;;;;7.22;3.70;;;;;;;4.45;81.62;98805.22;4914283;29;20068;-74
2022/04/09 02:22:06;;;;;;;7.10;3.92;;;;;;;4.37;81.69;98808.75;4914787;29;20039;-74
2022/04/09 02:24:31;;;;;;;6.28;4.07;;;;;;;4.36;81.70;98807.06;4915034;29;20036;-74
2022/04/09 02:26:56;;;;;;;6.43;3.90;;;;;;;4.35;81.47;98813.16;4922290;29;20507;-74
2022/04/09 02:29:22;;;;;;;7.78;4.38;;;;;;;4.34;81.24;98819.25;4913784;29;20432;-74
2022/04/09 02:31:47;;;;;;;8.45;4.28;;;;;;;4.38;81.53;98823.56;4911558;29;20032;-74
2022/04/09 02:34:12;;;;;;;8.13;4.07;;;;;;;4.44;81.12;98824.41;4913566;29;20047;-74
2022/04/09 02:36:38;;;;;;;9.48;4.63;;;;;;;4.42;80.92;98820.94;4913417;29;20036;-75
2022/04/09 02:39:04;;;;;;;9.15;4.53;;;;;;;4.47;80.92;98829.59;4914921;29;20028;-74
2022/04/09 02:41:30;;;;;;;7.28;4.05;;;;;;;4.50;81.08;98832.19;4909940;29;20182;-74
2022/04/09 02:43:57;;;;;;;7.60;4.28;;;;;;;4.43;80.52;98826.16;4913542;29;20415;-74
2022/04/09 02:46:22;;;;;;;8.55;4.47;;;;;;;4.37;81.01;98834.88;4916321;29;20088;-74
2022/04/09 02:48:48;;;;;;;8.18;4.75;;;;;;;4.31;81.44;98845.41;4917554;29;20451;-74
2022/04/09 02:51:17;;;;;;;11.50;4.40;;;;;;;4.31;81.29;98852.38;4913824;29;20658;-74
2022/04/09 02:53:44;;;;;;;6.15;4.25;;;;;;;4.28;81.38;98850.66;4900567;29;20032;-74
2022/04/09 02:56:09;;;;;;;9.10;4.90;;;;;;;4.25;81.32;98861.13;4917380;29;20084;-74
2022/04/09 02:58:37;;;;;;;9.07;4.50;;;;;;;4.27;81.41;98869.81;4917397;29;20157;-74
2022/04/09 03:01:03;;;;;;;7.25;3.65;;;;;;;4.28;81.51;98876.75;4918464;29;20537;-74
2022/04/09 03:03:28;;;;;;;9.35;4.90;;;;;;;4.26;81.21;98882.88;4914499;29;20043;-74
2022/04/09 03:05:54;;;;;;;7.47;4.43;;;;;;;4.20;81.68;98894.22;4927817;29;20094;-74
2022/04/09 03:08:20;;;;;;;8.48;5.53;;;;;;;4.15;81.88;98903.84;4917203;29;20537;-74
2022/04/09 03:10:46;;;;;;;6.45;4.75;;;;;;;4.13;81.84;98909.06;4913605;29;20495;-73
2022/04/09 03:13:11;;;;;;;7.30;4.70;;;;;;;4.08;82.05;98915.19;4915802;29;20070;-74
2022/04/09 03:15:36;;;;;;;8.32;4.93;;;;;;;4.05;81.84;98923.03;4918248;29;20044;-73
2022/04/09 03:18:02;;;;;;;9.57;4.78;;;;;;;4.05;81.75;98925.66;4917036;29;20067;-73
2022/04/09 03:20:30;;;;;;;9.20;5.25;;;;;;;3.98;82.14;98927.41;4913402;29;20131;-74
2022/04/09 03:22:56;;;;;;;12.30;5.13;;;;;;;3.97;82.14;98937.88;4915728;29;20123;-74
2022/04/09 03:25:30;;;;;;;8.63;5.25;;;;;;;3.95;81.55;98936.13;4916960;29;20039;-74
2022/04/09 03:27:56;;;;;;;8.80;5.32;;;;;;;3.96;81.68;98937.03;4918208;29;20499;-74
2022/04/09 03:30:21;;;;;;;9.63;5.82;;;;;;;3.93;81.73;98942.25;4918079;29;20731;-74
2022/04/09 03:32:49;;;;;;;9.15;5.97;;;;;;;3.96;81.56;98947.47;4932434;29;20035;-74
2022/04/09 03:35:22;;;;;;;7.70;4.90;;;;;;;3.93;81.41;98966.63;4916494;29;20629;-74
2022/04/09 03:37:49;;;;;;;12.27;5.57;;;;;;;3.90;81.52;98965.75;4916705;29;20035;-74
2022/04/09 03:40:19;;;;;;;7.88;4.55;;;;;;;3.94;81.33;98965.72;4916506;29;20036;-74
2022/04/09 03:42:44;;;;;;;9.70;5.18;;;;;;;3.92;81.32;98972.69;4916076;29;20534;-74
2022/04/09 03:45:10;;;;;;;7.85;4.45;;;;;;;3.92;80.92;98977.06;4914442;29;20372;-74
2022/04/09 03:47:36;;;;;;;11.55;5.50;;;;;;;3.91;81.07;98985.78;4915184;29;20029;-74
2022/04/09 03:50:07;;;;;;;10.68;6.38;;;;;;;3.89;81.26;98997.94;4916514;29;20042;-74
2022/04/09 03:52:32;;;;;;;12.02;6.57;;;;;;;3.91;81.07;98988.38;4916202;29;20040;-74
2022/04/09 03:54:58;;;;;;;10.48;5.20;;;;;;;3.93;80.91;98992.72;4922930;29;20121;-73
2022/04/09 03:57:24;;;;;;;10.68;5.82;;;;;;;3.92;80.93;98998.78;4915369;29;20140;-74
2022/04/09 03:59:55;;;;;;;10.38;4.95;;;;;;;3.90;80.67;99002.28;4915990;29;20422;-73
2022/04/09 04:02:22;;;;;;;9.68;4.10;;;;;;;3.90;80.49;99002.28;4925368;29;20064;-74
2022/04/09 04:04:47;;;;;;;10.20;5.00;;;;;;;3.89;80.92;99013.59;4916189;29;20492;-74
2022/04/09 04:07:13;;;;;;;10.07;5.22;;;;;;;3.94;80.53;99023.16;4916115;29;20044;-74
2022/04/09 04:09:41;;;;;;;11.43;4.63;;;;;;;3.93;80.50;99031.00;4916168;29;20511;-74
2022/04/09 04:12:07;;;;;;;13.13;5.05;;;;;;;3.90;80.17;99038.81;4915254;29;20095;-74
2022/04/09 04:14:32;;;;;;;15.82;5.03;;;;;;;3.94;80.53;99046.66;4923028;29;20039;-74
2022/04/09 04:16:59;;;;;;;11.35;5.57;;;;;;;3.92;80.45;99051.00;4917187;29;20499;-74
2022/04/09 04:19:25;;;;;;;15.07;5.97;;;;;;;3.95;80.44;99053.59;4917234;29;20198;-74
2022/04/09 04:21:52;;;;;;;9.18;5.07;;;;;;;3.98;80.16;99064.91;4923966;29;20519;-74
2022/04/09 04:24:18;;;;;;;7.93;5.40;;;;;;;4.04;80.22;99083.19;4914843;29;20714;-74
2022/04/09 04:26:44;;;;;;;12.50;5.22;;;;;;;4.05;80.07;99085.78;4915576;29;20071;-74
2022/04/09 04:29:17;;;;;;;10.05;4.78;;;;;;;4.13;80.13;99086.59;4912646;29;20139;-74
2022/04/09 04:31:42;;;;;;;9.88;4.88;;;;;;;4.22;79.95;99093.56;4915376;29;20507;-74
2022/04/09 04:34:08;;;;;;;13.13;4.78;;;;;;;4.32;79.46;99110.03;4915637;29;20032;-74
2022/04/09 04:36:38;;;;;;;8.70;4.65;;;;;;;4.29;78.92;99097.88;4915521;29;20495;-74
2022/04/09 04:39:05;;;;;;;8.50;4.38;;;;;;;4.20;78.98;99108.38;4916866;29;20032;-74
2022/04/09 04:41:31;;;;;;;8.82;4.20;;;;;;;4.18;79.20;99110.09;4914117;29;20108;-74
2022/04/09 04:43:57;;;;;;;10.65;4.50;;;;;;;4.18;79.09;99113.56;4913765;29;20032;-74
2022/04/09 04:46:28;;;;;;;11.88;5.22;;;;;;;4.21;78.70;99120.53;4915847;29;20571;-73
2022/04/09 04:48:54;;;;;;;8.32;3.58;;;;;;;4.21;78.80;99130.97;4911143;29;20131;-74
2022/04/09 04:51:22;;;;;;;8.50;3.72;;;;;;;4.31;78.28;99142.28;4914535;29;20075;-74
2022/04/09 04:53:47;;;;;;;8.73;3.47;;;;;;;4.43;77.75;99142.25;4915098;29;20032;-73
2022/04/09 04:56:13;;;;;;;10.30;3.95;;;;;;;4.47;77.43;99158.75;4913754;29;20032;-74
2022/04/09 04:58:50;;;;;;;8.68;3.42;;;;;;;4.53;77.31;99171.78;4914170;29;20091;-75
2022/04/09 05:01:16;;;;;;;12.52;3.65;;;;;;;4.66;77.21;99170.00;4914437;29;20032;-74
2022/04/09 05:03:46;;;;;;;14.27;3.80;;;;;;;4.63;77.25;99181.34;4930201;29;20040;-74
2022/04/09 05:06:20;;;;;;;10.50;3.78;;;;;;;4.70;76.91;99188.28;4913330;29;20043;-74
2022/04/09 05:08:46;;;;;;;7.95;3.25;;;;;;;4.72;77.04;99186.56;4912585;29;20055;-73
2022/04/09 05:11:16;;;;;;;9.65;3.20;;;;;;;4.78;76.73;99206.56;4909597;29;20063;-74
2022/04/09 05:13:43;;;;;;;10.93;3.88;;;;;;;4.81;76.34;99212.63;4913058;29;20032;-74
2022/04/09 05:16:10;;;;;;;9.85;3.65;;;;;;;4.90;76.30;99210.84;4915409;29;20605;-73
2022/04/09 05:18:42;;;;;;;7.40;3.03;;;;;;;4.95;75.89;99216.94;4913054;29;20079;-74
2022/04/09 05:21:07;;;;;;;11.77;3.70;;;;;;;4.87;75.90;99227.41;4915716;29;20071;-74
2022/04/09 05:23:32;;;;;;;8.50;3.60;;;;;;;4.94;76.03;99212.59;4915734;29;20043;-74
2022/04/09 05:25:58;;;;;;;6.75;3.38;;;;;;;4.96;75.31;99223.91;4914885;29;20024;-74
2022/04/09 05:28:24;;;;;;;8.15;3.13;;;;;;;4.98;75.65;99235.25;4913179;29;20032;-74
2022/04/09 05:30:50;;;;;;;10.10;3.35;;;;;;;5.04;75.13;99245.66;4914658;29;20044;-73
2022/04/09 05:33:17;;;;;;;10.20;3.05;;;;;;;5.07;75.10;99244.78;4914528;29;20039;-74
2022/04/09 05:35:47;;;;;;;13.27;2.90;;;;;;;5.04;75.02;99250.91;4911572;29;20036;-74
2022/04/09 05:38:13;;;;;;;10.52;3.20;;;;;;;5.13;74.86;99261.31;4913486;29;20044;-74
2022/04/09 05:40:40;;;;;;;7.82;2.90;;;;;;;5.12;74.90;99269.19;4914567;29;20043;-74
2022/04/09 05:43:12;;;;;;;9.40;2.97;;;;;;;5.25;73.62;99261.25;4915790;29;20043;-74
2022/04/09 05:45:37;;;;;;;11.27;3.33;;;;;;;5.32;73.60;99292.59;4914656;29;20036;-75
2022/04/09 05:48:03;;;;;;;8.35;3.28;;;;;;;5.39;73.34;99278.63;4912375;29;20044;-74
2022/04/09 05:50:49;;;;;;;9.52;3.40;;;;;;;5.35;73.58;99285.63;4913310;29;20267;-74
2022/04/09 05:53:16;;;;;;;9.32;3.35;;;;;;;5.39;73.49;99289.09;4912667;29;20036;-74
2022/04/09 05:55:42;;;;;;;9.35;3.20;;;;;;;5.47;73.18;99298.63;4912401;29;20087;-75
2022/04/09 05:58:08;;;;;;;9.10;3.28;;;;;;;5.57;73.06;99293.38;4913100;29;20469;-74
2022/04/09 06:00:37;;;;;;;11.95;4.32;;;;;;;5.62;72.75;99329.09;4914148;29;20039;-73
2022/04/09 06:03:17;;;;;;;10.82;3.53;;;;;;;5.54;72.37;99323.03;4911861;29;20173;-74
2022/04/09 06:05:43;;;;;;;10.90;3.92;;;;;;;5.58;72.89;99332.63;4911650;29;20056;-73
2022/04/09 06:08:16;;;;;;;8.63;4.18;;;;;;;5.52;72.75;99322.16;4915404;29;20055;-74
2022/04/09 06:10:42;;;;;;;8.80;3.75;;;;;;;5.55;73.15;99335.22;4912753;29;20044;-74
2022/04/09 06:13:07;;;;;;;7.63;3.45;;;;;;;5.59;73.34;99339.59;4911724;29;20044;-74
2022/04/09 06:15:34;;;;;;;10.98;3.92;;;;;;;5.69;72.76;99336.03;4911574;29;20028;-73
2022/04/09 06:18:06;;;;;;;11.40;4.53;;;;;;;5.75;72.12;99350.84;4911175;29;20072;-73
2022/04/09 06:20:32;;;;;;;11.10;4.40;;;;;;;5.85;72.23;99346.44;4915295;29;20056;-73
2022/04/09 06:22:59;;;;;;;10.07;4.45;;;;;;;5.86;71.51;99364.75;4911229;29;20492;-73
2022/04/09 06:25:25;;;;;;;12.60;4.32;;;;;;;5.95;69.53;99373.44;4926673;29;20056;-73
2022/04/09 06:27:50;;;;;;;10.88;4.40;;;;;;;6.03;69.24;99363.81;4909169;29;20082;-74
2022/04/09 06:30:16;;;;;;;10.02;3.92;;;;;;;6.08;67.57;99385.63;4906390;29;20535;-73
2022/04/09 06:32:53;;;;;;;10.27;3.80;;;;;;;6.01;68.08;99383.91;4909699;29;20395;-73
2022/04/09 06:35:20;;;;;;;10.65;3.35;;;;;;;6.05;67.52;99386.50;4907959;29;20032;-73
2022/04/09 06:37:45;;;;;;;10.52;3.85;;;;;;;6.17;68.07;99382.94;4911767;29;20040;-73
2022/04/09 06:40:13;;;;;;;8.40;3.90;;;;;;;6.14;68.58;99383.81;4909714;29;20044;-72
2022/04/09 06:42:39;;;;;;;13.07;4.35;;;;;;;6.18;69.07;99381.16;4909130;29;20595;-73
2022/04/09 06:45:28;;;;;;;10.77;3.90;;;;;;;6.11;69.47;99396.06;4910330;29;20092;-73
2022/04/09 06:48:12;;;;;;;8.20;3.33;;;;;;;6.02;68.95;99389.13;4910804;29;20144;-73
2022/04/09 06:50:45;;;;;;;10.48;3.78;;;;;;;5.91;69.49;99406.63;4907874;29;20040;-73
2022/04/09 06:53:11;;;;;;;8.77;3.22;;;;;;;5.89;69.37;99405.75;4910382;29;20450;-73
2022/04/09 06:55:36;;;;;;;13.45;3.92;;;;;;;5.93;69.67;99407.50;4912160;29;20069;-73
2022/04/09 06:58:02;;;;;;;10.93;3.90;;;;;;;6.02;68.91;99417.94;4912763;29;20047;-73
2022/04/09 07:00:33;;;;;;;22.90;5.65;;;;;;;6.19;69.07;99445.81;4911775;29;20040;-73
2022/04/09 07:03:02;;;;;;;15.85;4.57;;;;;;;6.21;68.22;99418.72;4912504;29;20032;-73
2022/04/09 07:05:28;;;;;;;7.90;3.45;;;;;;;6.39;67.04;99436.03;4914516;29;20096;-74
2022/04/09 07:07:55;;;;;;;10.60;3.78;;;;;;;6.47;66.66;99442.13;4914681;29;20048;-74
2022/04/09 07:10:20;;;;;;;13.05;3.80;;;;;;;6.44;66.97;99457.84;4914701;29;20047;-74
2022/04/09 07:12:46;;;;;;;9.23;3.35;;;;;;;6.47;65.43;99446.47;4914106;29;20044;-74
2022/04/09 07:15:11;;;;;;;8.98;3.45;;;;;;;6.64;65.52;99475.22;4911233;29;20036;-74
2022/04/09 07:17:38;;;;;;;11.23;3.83;;;;;;;6.64;64.34;99467.34;4913165;29;20036;-73
2022/04/09 07:20:08;;;;;;;8.95;2.80;;;;;;;6.54;63.75;99443.81;4911087;29;20139;-74
2022/04/09 07:22:35;;;;;;;12.82;3.00;;;;;;;6.48;64.12;99443.84;4912555;29;20039;-74
2022/04/09 07:25:01;;;;;;;11.50;2.97;;;;;;;6.78;64.12;99470.72;4906486;29;20080;-73
2022/04/09 07:27:44;;;;;;;8.90;3.30;;;;;;;6.82;63.10;99459.34;4910754;29;20040;-73
2022/04/09 07:30:13;;;;;;;10.48;2.95;;;;;;;6.94;61.83;99488.09;4911791;29;20040;-73
2022/04/09 07:32:40;;;;;;;9.43;3.33;;;;;;;7.05;62.31;99468.75;4914749;29;20043;-72
2022/04/09 07:35:05;;;;;;;6.78;3.15;;;;;;;7.07;62.73;99461.75;4917849;29;20372;-73
2022/04/09 07:37:31;;;;;;;12.63;3.70;;;;;;;7.12;62.75;99473.94;4917779;29;20083;-72
2022/04/09 07:39:57;;;;;;;7.72;3.20;;;;;;;7.21;61.43;99484.34;4913473;29;20410;-73
2022/04/09 07:42:22;;;;;;;6.88;3.33;;;;;;;7.55;61.95;99478.78;4915334;29;20043;-72
2022/04/09 07:44:48;;;;;;;8.27;3.22;;;;;;;7.70;60.45;99503.97;4913734;29;20111;-73
2022/04/09 07:47:14;;;;;;;10.07;3.47;;;;;;;7.52;60.14;99480.53;4912922;29;20043;-73
2022/04/09 07:49:39;;;;;;;9.60;3.30;;;;;;;7.29;61.47;99484.28;4912317;29;20048;-72
2022/04/09 07:52:05;;;;;;;10.63;3.00;;;;;;;7.27;60.76;99509.66;4917090;29;20040;-73
2022/04/09 07:54:32;;;;;;;6.60;2.63;;;;;;;7.14;60.31;99497.53;4916870;29;20780;-73
2022/04/09 07:56:57;;;;;;;6.13;2.97;;;;;;;7.23;59.93;99500.97;4915878;29;20503;-73
2022/04/09 07:59:22;;;;;;;8.60;3.13;;;;;;;7.33;59.27;99506.13;4917101;29;20043;-74
2022/04/09 08:01:48;;;;;;;10.20;2.63;;;;;;;7.63;60.74;99497.06;4916659;29;20036;-73
2022/04/09 08:04:13;;;;;;;7.20;2.08;;;;;;;7.91;57.52;99497.59;4916998;29;20044;-73
2022/04/09 08:06:38;;;;;;;6.18;1.80;;;;;;;7.92;55.75;99503.75;4913207;29;20029;-74
2022/04/09 08:09:04;;;;;;;6.00;1.88;;;;;;;7.57;55.99;99526.91;4915665;29;20050;-74
2022/04/09 08:11:30;;;;;;;4.95;1.40;;;;;;;7.46;55.81;99516.47;4912787;29;20040;-72
2022/04/09 08:13:55;;;;;;;5.53;1.58;;;;;;;7.42;55.93;99520.03;4911533;29;20040;-72
2022/04/09 08:16:20;;;;;;;5.53;2.13;;;;;;;7.54;57.20;99539.16;4913974;29;20106;-74
2022/04/09 08:18:46;;;;;;;7.80;2.40;;;;;;;7.52;57.87;99520.81;4915126;29;20396;-73
2022/04/09 08:21:11;;;;;;;7.25;2.83;;;;;;;7.44;57.82;99522.63;4914721;29;20036;-73
2022/04/09 08:23:36;;;;;;;7.97;2.75;;;;;;;7.36;58.92;99546.34;4907971;29;20039;-74
2022/04/09 08:26:02;;;;;;;7.20;2.60;;;;;;;7.60;58.53;99528.63;4914090;29;20058;-74
2022/04/09 08:28:30;;;;;;;7.68;2.50;;;;;;;7.80;56.50;99549.41;4915420;29;20036;-74
2022/04/09 08:30:55;;;;;;;7.03;2.33;;;;;;;8.28;57.59;99533.97;4916415;29;20047;-75
2022/04/09 08:33:21;;;;;;;8.15;2.53;;;;;;;8.50;56.09;99530.19;4912935;29;20095;-73
2022/04/09 08:35:47;;;;;;;5.78;2.22;;;;;;;8.39;56.00;99523.31;4916551;29;20435;-73
2022/04/09 08:38:12;;;;;;;3.78;1.30;;;;;;;8.26;53.40;99530.50;4913157;29;20044;-73
2022/04/09 08:40:38;;;;;;;4.70;1.52;;;;;;;8.06;52.99;99538.59;4912446;29;20036;-74
2022/04/09 08:43:04;;;;;;;6.28;1.67;;;;;;;8.11;53.03;99582.34;4915335;29;20043;-74
2022/04/09 08:45:36;;;;;;;7.03;1.58;;;;;;;8.18;52.95;99554.25;4911775;29;20028;-74
2022/04/09 08:48:04;;;;;;;5.13;1.20;;;;;;;8.15;52.36;99538.50;4914883;29;20091;-74
2022/04/09 08:50:31;;;;;;;4.28;1.20;;;;;;;8.01;52.00;99532.53;4914013;29;20063;-73
2022/04/09 08:52:56;;;;;;;8.77;1.95;;;;;;;8.11;53.52;99536.78;4915830;29;20111;-73
2022/04/09 08:55:21;;;;;;;6.57;1.40;;;;;;;7.82;56.22;99556.38;4915913;29;20111;-74
2022/04/09 08:57:48;;;;;;;4.22;1.95;;;;;;;7.07;60.26;99585.91;4913257;29;20074;-75
2022/04/09 09:00:17;;;;;;;8.07;1.85;;;;;;;6.48;65.11;99553.09;4916035;29;20075;-75
2022/04/09 09:02:50;;;;;;;6.93;2.10;;;;;;;6.45;67.16;99564.44;4912161;29;20040;-75
2022/04/09 09:05:27;;;;;;;5.55;1.63;;;;;;;6.47;66.49;99548.69;4905910;29;20040;-75
2022/04/09 09:07:52;;;;;;;7.07;1.98;;;;;;;6.77;67.21;99539.78;4914808;29;20419;-75
2022/04/09 09:10:19;;;;;;;4.78;1.70;;;;;;;7.23;66.78;99561.31;4914935;29;20039;-74
2022/04/09 09:12:59;;;;;;;5.75;1.38;;;;;;;7.61;63.52;99549.59;4912497;29;20665;-75
2022/04/09 09:15:25;;;;;;;6.57;2.03;;;;;;;7.82;61.14;99551.13;4912098;29;20032;-75
2022/04/09 09:17:55;;;;;;;4.25;1.42;;;;;;;7.21;62.64;99619.97;4913262;29;20040;-76
2022/04/09 09:20:20;;;;;;;2.83;1.33;;;;;;;6.48;68.58;99616.00;4913291;29;20040;-74
2022/04/09 09:22:48;;;;;;;6.65;1.65;;;;;;;5.96;69.93;99609.16;4915032;29;20047;-75
2022/04/09 09:25:13;;;;;;;4.25;1.63;;;;;;;5.57;70.54;99597.84;4908886;29;20032;-74
2022/04/09 09:27:40;;;;;;;2.55;1.20;;;;;;;5.05;70.99;99588.22;4909860;29;20036;-75
2022/04/09 09:30:07;;;;;;;2.47;1.20;;;;;;;5.03;71.71;99596.94;4912549;29;20495;-75
2022/04/09 09:32:34;;;;;;;4.85;1.45;;;;;;;5.12;72.28;99581.28;4914538;29;20411;-74
2022/04/09 09:34:59;;;;;;;4.65;1.90;;;;;;;5.44;74.36;99572.56;4914512;29;20075;-75
2022/04/09 09:37:28;;;;;;;5.53;2.10;;;;;;;5.87;73.09;99567.28;4911137;29;20075;-75
2022/04/09 09:39:54;;;;;;;6.90;2.15;;;;;;;6.04;72.91;99568.09;4914527;29;20055;-75
2022/04/09 09:42:21;;;;;;;5.65;2.58;;;;;;;6.36;72.08;99554.88;4914913;29;20047;-75
2022/04/09 09:44:46;;;;;;;7.95;2.95;;;;;;;6.66;67.39;99573.97;4906821;29;20216;-74
2022/04/09 09:47:17;;;;;;;4.60;1.67;;;;;;;6.95;64.35;99565.91;4914116;29;20099;-75
2022/04/09 09:49:58;;;;;;;8.43;2.50;;;;;;;7.26;63.71;99576.19;4913327;29;20043;-75
2022/04/09 09:52:34;;;;;;;7.00;2.65;;;;;;;7.62;60.87;99584.59;4910888;29;20039;-75
2022/04/09 09:55:13;;;;;;;5.28;2.05;;;;;;;7.78;59.96;99570.47;4913160;29;20092;-74
2022/04/09 09:57:38;;;;;;;5.90;2.55;;;;;;;8.30;59.52;99593.50;4911596;29;20076;-74
2022/04/09 10:00:10;;;;;;;5.43;1.88;;;;;;;8.73;58.21;99564.06;4913999;29;20070;-74
2022/04/09 10:02:37;;;;;;;7.27;2.23;;;;;;;9.03;54.38;99567.13;4911908;29;20040;-74
2022/04/09 10:05:03;;;;;;;6.32;1.80;;;;;;;8.92;53.23;99579.59;4912817;29;20554;-74
2022/04/09 10:07:29;;;;;;;5.57;1.92;;;;;;;8.82;53.99;99568.31;4912707;29;20084;-75
2022/04/09 10:09:54;;;;;;;5.03;1.70;;;;;;;8.88;51.36;99562.09;4913928;29;20035;-74
2022/04/09 10:12:22;;;;;;;6.50;2.05;;;;;;;8.72;53.70;99588.66;4911435;29;20051;-74
2022/04/09 10:14:55;;;;;;;5.03;1.70;;;;;;;8.44;54.39;99582.00;4912709;29;20051;-74
2022/04/09 10:17:22;;;;;;;6.93;1.73;;;;;;;8.73;52.99;99579.00;4910644;29;20052;-74
2022/04/09 10:19:56;;;;;;;4.07;1.50;;;;;;;9.19;54.81;99594.09;4912444;29;20558;-75
2022/04/09 10:22:27;;;;;;;5.80;1.70;;;;;;;9.56;54.71;99583.84;4912208;29;20415;-75
2022/04/09 10:24:55;;;;;;;5.38;1.73;;;;;;;9.60;53.55;99556.53;4913083;29;20040;-75
2022/04/09 10:27:47;;;;;;;7.32;1.80;;;;;;;9.71;55.94;99566.88;4914779;29;20055;-75
2022/04/09 10:30:13;;;;;;;3.67;1.17;;;;;;;9.71;53.29;99560.75;4909616;29;20028;-75
2022/04/09 10:32:51;;;;;;;4.35;1.45;;;;;;;10.00;53.40;99562.84;4913173;29;20039;-75
2022/04/09 10:35:42;;;;;;;8.75;2.72;;;;;;;9.94;49.93;99571.72;4913978;29;20096;-75
2022/04/09 10:38:09;;;;;;;7.00;1.38;;;;;;;9.48;47.60;99580.44;4928555;29;20036;-75
2022/04/09 10:40:37;;;;;;;3.90;1.52;;;;;;;9.08;48.00;99573.19;4929333;29;20044;-76
2022/04/09 10:43:04;;;;;;;5.18;1.50;;;;;;;8.73;46.91;99624.56;4911972;29;20554;-75
2022/04/09 10:45:31;;;;;;;7.15;1.52;;;;;;;8.56;47.88;99579.19;4913751;29;20036;-75
2022/04/09 10:48:05;;;;;;;7.50;1.70;;;;;;;8.74;47.04;99580.72;4914491;29;20028;-75
2022/04/09 10:50:54;;;;;;;3.50;1.38;;;;;;;8.91;46.98;99598.91;4913438;29;20533;-75
2022/04/09 10:53:24;;;;;;;5.55;1.70;;;;;;;9.31;46.30;99577.25;4914327;29;20084;-75
2022/04/09 10:56:10;;;;;;;5.40;1.45;;;;;;;9.43;45.31;99580.53;4914565;29;20079;-75
2022/04/09 10:59:03;;;;;;;6.63;1.88;;;;;;;9.71;44.33;99579.19;4912365;29;20056;-75
2022/04/09 11:01:47;;;;;;;7.15;1.80;;;;;;;9.91;43.51;99587.59;4910425;29;20036;-75
2022/04/09 11:04:27;;;;;;;4.75;1.67;;;;;;;9.70;44.47;99586.22;4908981;29;20534;-75
2022/04/09 11:07:22;;;;;;;4.38;1.45;;;;;;;9.65;44.03;99620.56;4912510;29;20474;-74
2022/04/09 11:09:52;;;;;;;3.67;1.55;;;;;;;9.55;42.12;99610.19;4912893;29;20051;-75
2022/04/09 11:12:21;;;;;;;4.80;1.45;;;;;;;9.50;42.71;99610.28;4912613;29;20036;-74
2022/04/09 11:14:49;;;;;;;8.07;1.23;;;;;;;9.40;44.13;99598.13;4912852;29;20048;-75
2022/04/09 11:17:34;;;;;;;5.00;1.63;;;;;;;9.24;44.15;99599.28;4916609;29;20103;-75
2022/04/09 11:20:10;;;;;;;4.00;1.25;;;;;;;9.16;43.83;99613.44;4913750;29;20044;-75
2022/04/09 11:22:53;;;;;;;4.35;1.45;;;;;;;9.33;44.10;99596.53;4915432;29;20384;-73
2022/04/09 11:25:26;;;;;;;4.80;2.25;;;;;;;9.47;43.30;99610.31;4914580;29;20032;-74
2022/04/09 11:27:52;;;;;;;;;;;;;;;9.65;42.97;99607.38;4912268;29;20104;-75
2022/04/09 11:30:18;;;;;;;4.72;1.50;;;;;;;9.73;42.03;99617.78;4917273;29;19915;-74
2022/04/09 11:32:45;;;;;;;7.45;1.45;;;;;;;9.77;42.27;99615.97;4917434;29;20110;-75
2022/04/09 11:35:11;;;;;;;6.07;1.35;;;;;;;9.65;40.52;99612.66;4917661;29;20583;-75
2022/04/09 11:37:45;;;;;;;5.35;1.42;;;;;;;9.91;41.13;99610.47;4917800;29;20040;-75
2022/04/09 11:40:12;;;;;;;5.40;1.73;;;;;;;9.84;40.78;99629.00;4917645;29;20399;-75
2022/04/09 11:42:46;;;;;;;6.20;1.35;;;;;;;10.23;39.91;99612.50;4917448;29;20050;-75